sensor_id;sensor_type;location;lat;lon;timestamp;pressure;altitude;pressure_sealevel;temperature;humidity
48244;BME280;34053;51.088;6.572;2023-05-07T00:00:16;101005.22;;;17.18;66.67
48244;BME280;34053;51.088;6.572;2023-05-07T00:03:09;101006.16;;;17.17;66.46
48244;BME280;34053;51.088;6.572;2023-05-07T00:06:00;101002.94;;;17.10;66.94
48244;BME280;34053;51.088;6.572;2023-05-07T00:08:50;100995.91;;;17.09;66.52
48244;BME280;34053;51.088;6.572;2023-05-07T00:11:41;100988.84;;;17.09;66.46
48244;BME280;34053;51.088;6.572;2023-05-07T00:14:32;100988.91;;;17.08;66.46
48244;BME280;34053;51.088;6.572;2023-05-07T00:17:23;100990.63;;;17.09;66.47
48244;BME280;34053;51.088;6.572;2023-05-07T00:20:14;100982.13;;;17.02;66.30
48244;BME280;34053;51.088;6.572;2023-05-07T00:23:04;100984.84;;;17.01;66.98
48244;BME280;34053;51.088;6.572;2023-05-07T00:25:56;100994.50;;;17.02;66.50
48244;BME280;34053;51.088;6.572;2023-05-07T00:28:47;100994.66;;;16.98;66.82
48244;BME280;34053;51.088;6.572;2023-05-07T00:31:37;100989.53;;;16.95;66.86
48244;BME280;34053;51.088;6.572;2023-05-07T00:34:28;100984.06;;;16.98;66.74
48244;BME280;34053;51.088;6.572;2023-05-07T00:37:19;100983.34;;;16.95;66.72
48244;BME280;34053;51.088;6.572;2023-05-07T00:40:10;100983.63;;;16.89;67.49
48244;BME280;34053;51.088;6.572;2023-05-07T00:43:01;100989.81;;;16.89;67.66
48244;BME280;34053;51.088;6.572;2023-05-07T00:45:51;100987.81;;;16.94;66.60
48244;BME280;34053;51.088;6.572;2023-05-07T00:48:43;100986.97;;;16.92;66.95
48244;BME280;34053;51.088;6.572;2023-05-07T00:51:33;100981.22;;;16.84;68.07
48244;BME280;34053;51.088;6.572;2023-05-07T00:54:24;100984.34;;;16.92;66.89
48244;BME280;34053;51.088;6.572;2023-05-07T00:57:15;100984.31;;;16.94;66.37
48244;BME280;34053;51.088;6.572;2023-05-07T01:00:08;100988.09;;;16.88;66.90
48244;BME280;34053;51.088;6.572;2023-05-07T01:02:59;100988.84;;;16.90;66.60
48244;BME280;34053;51.088;6.572;2023-05-07T01:05:50;100988.22;;;16.85;67.24
48244;BME280;34053;51.088;6.572;2023-05-07T01:08:43;100984.50;;;16.89;66.57
48244;BME280;34053;51.088;6.572;2023-05-07T01:11:35;100977.16;;;16.77;70.10
48244;BME280;34053;51.088;6.572;2023-05-07T01:14:26;100975.91;;;16.84;66.92
48244;BME280;34053;51.088;6.572;2023-05-07T01:17:17;100966.00;;;16.88;66.65
48244;BME280;34053;51.088;6.572;2023-05-07T01:20:09;100970.78;;;16.81;68.53
48244;BME280;34053;51.088;6.572;2023-05-07T01:23:06;100970.00;;;16.79;67.19
48244;BME280;34053;51.088;6.572;2023-05-07T01:25:57;100972.19;;;16.88;66.97
48244;BME280;34053;51.088;6.572;2023-05-07T01:28:48;100967.97;;;16.84;67.04
48244;BME280;34053;51.088;6.572;2023-05-07T01:31:40;100966.47;;;16.78;68.32
48244;BME280;34053;51.088;6.572;2023-05-07T01:34:33;100969.91;;;16.80;67.40
48244;BME280;34053;51.088;6.572;2023-05-07T01:37:25;100960.75;;;16.68;69.64
48244;BME280;34053;51.088;6.572;2023-05-07T01:40:17;100962.97;;;16.78;67.47
48244;BME280;34053;51.088;6.572;2023-05-07T01:43:09;100967.47;;;16.76;67.58
48244;BME280;34053;51.088;6.572;2023-05-07T01:46:01;100957.91;;;16.73;67.43
48244;BME280;34053;51.088;6.572;2023-05-07T01:48:53;100966.47;;;16.78;67.15
48244;BME280;34053;51.088;6.572;2023-05-07T01:51:44;100961.56;;;16.71;67.68
48244;BME280;34053;51.088;6.572;2023-05-07T01:54:34;100965.75;;;16.75;67.27
48244;BME280;34053;51.088;6.572;2023-05-07T01:57:26;100957.75;;;16.76;66.95
48244;BME280;34053;51.088;6.572;2023-05-07T02:00:17;100958.75;;;16.74;67.42
48244;BME280;34053;51.088;6.572;2023-05-07T02:03:09;100953.44;;;16.74;66.90
48244;BME280;34053;51.088;6.572;2023-05-07T02:06:00;100960.06;;;16.65;67.89
48244;BME280;34053;51.088;6.572;2023-05-07T02:08:51;100950.34;;;16.46;70.77
48244;BME280;34053;51.088;6.572;2023-05-07T02:11:42;100952.78;;;16.51;68.47
48244;BME280;34053;51.088;6.572;2023-05-07T02:14:33;100947.47;;;16.51;68.90
48244;BME280;34053;51.088;6.572;2023-05-07T02:17:23;100951.22;;;16.47;69.04
48244;BME280;34053;51.088;6.572;2023-05-07T02:20:14;100948.19;;;16.55;68.07
48244;BME280;34053;51.088;6.572;2023-05-07T02:23:05;100952.72;;;16.52;67.96
48244;BME280;34053;51.088;6.572;2023-05-07T02:25:56;100955.22;;;16.56;67.42
48244;BME280;34053;51.088;6.572;2023-05-07T02:28:47;100956.34;;;16.50;68.08
48244;BME280;34053;51.088;6.572;2023-05-07T02:31:38;100954.59;;;16.50;67.77
48244;BME280;34053;51.088;6.572;2023-05-07T02:34:28;100950.06;;;16.52;67.62
48244;BME280;34053;51.088;6.572;2023-05-07T02:37:19;100956.53;;;16.47;67.86
48244;BME280;34053;51.088;6.572;2023-05-07T02:40:10;100952.78;;;16.51;67.29
48244;BME280;34053;51.088;6.572;2023-05-07T02:43:02;100948.41;;;16.50;67.20
48244;BME280;34053;51.088;6.572;2023-05-07T02:46:06;100951.22;;;16.47;67.33
48244;BME280;34053;51.088;6.572;2023-05-07T02:48:57;100961.69;;;16.31;70.05
48244;BME280;34053;51.088;6.572;2023-05-07T02:51:48;100956.78;;;16.41;67.86
48244;BME280;34053;51.088;6.572;2023-05-07T02:54:38;100968.13;;;16.44;67.38
48244;BME280;34053;51.088;6.572;2023-05-07T02:57:29;100964.59;;;16.44;67.20
48244;BME280;34053;51.088;6.572;2023-05-07T03:00:20;100958.50;;;16.42;67.76
48244;BME280;34053;51.088;6.572;2023-05-07T03:03:11;100957.38;;;16.47;67.47
48244;BME280;34053;51.088;6.572;2023-05-07T03:06:02;100963.81;;;16.42;67.69
48244;BME280;34053;51.088;6.572;2023-05-07T03:08:53;100963.69;;;16.45;67.08
48244;BME280;34053;51.088;6.572;2023-05-07T03:11:44;100959.38;;;16.42;67.01
48244;BME280;34053;51.088;6.572;2023-05-07T03:14:34;100967.38;;;16.41;67.50
48244;BME280;34053;51.088;6.572;2023-05-07T03:17:25;100960.41;;;16.40;67.54
48244;BME280;34053;51.088;6.572;2023-05-07T03:20:16;100961.47;;;16.35;67.32
48244;BME280;34053;51.088;6.572;2023-05-07T03:23:07;100958.69;;;16.39;67.16
48244;BME280;34053;51.088;6.572;2023-05-07T03:25:58;100959.59;;;16.38;67.26
48244;BME280;34053;51.088;6.572;2023-05-07T03:28:48;100952.00;;;16.30;67.73
48244;BME280;34053;51.088;6.572;2023-05-07T03:31:39;100957.41;;;16.28;67.54
48244;BME280;34053;51.088;6.572;2023-05-07T03:34:30;100951.31;;;16.26;67.98
48244;BME280;34053;51.088;6.572;2023-05-07T03:37:21;100960.84;;;16.30;67.16
48244;BME280;34053;51.088;6.572;2023-05-07T03:40:12;100952.09;;;16.28;67.23
48244;BME280;34053;51.088;6.572;2023-05-07T03:43:03;100947.66;;;16.29;66.84
48244;BME280;34053;51.088;6.572;2023-05-07T03:45:54;100946.81;;;16.28;67.02
48244;BME280;34053;51.088;6.572;2023-05-07T03:48:45;100953.94;;;16.26;67.42
48244;BME280;34053;51.088;6.572;2023-05-07T03:51:36;100946.09;;;16.25;67.64
48244;BME280;34053;51.088;6.572;2023-05-07T03:54:27;100954.97;;;16.24;67.31
48244;BME280;34053;51.088;6.572;2023-05-07T03:57:18;100958.63;;;16.21;67.61
48244;BME280;34053;51.088;6.572;2023-05-07T04:00:09;100957.69;;;16.22;67.23
48244;BME280;34053;51.088;6.572;2023-05-07T04:03:00;100962.19;;;16.20;67.31
48244;BME280;34053;51.088;6.572;2023-05-07T04:05:50;100961.25;;;16.21;67.49
48244;BME280;34053;51.088;6.572;2023-05-07T04:08:41;100962.41;;;16.15;67.82
48244;BME280;34053;51.088;6.572;2023-05-07T04:11:32;100967.69;;;16.15;67.49
48244;BME280;34053;51.088;6.572;2023-05-07T04:14:23;100967.56;;;16.18;67.32
48244;BME280;34053;51.088;6.572;2023-05-07T04:17:14;100974.59;;;16.19;67.50
48244;BME280;34053;51.088;6.572;2023-05-07T04:20:05;100976.56;;;16.14;67.87
48244;BME280;34053;51.088;6.572;2023-05-07T04:22:57;100970.25;;;16.17;67.37
48244;BME280;34053;51.088;6.572;2023-05-07T04:25:48;100967.63;;;16.17;67.19
48244;BME280;34053;51.088;6.572;2023-05-07T04:28:39;100969.50;;;16.15;67.34
48244;BME280;34053;51.088;6.572;2023-05-07T04:31:31;100962.31;;;16.17;67.32
48244;BME280;34053;51.088;6.572;2023-05-07T04:34:22;100964.25;;;16.13;68.02
48244;BME280;34053;51.088;6.572;2023-05-07T04:37:13;100963.03;;;16.01;69.79
48244;BME280;34053;51.088;6.572;2023-05-07T04:40:04;100959.09;;;15.91;71.18
48244;BME280;34053;51.088;6.572;2023-05-07T04:42:55;100962.59;;;15.71;72.11
48244;BME280;34053;51.088;6.572;2023-05-07T04:45:46;100960.56;;;15.98;68.56
48244;BME280;34053;51.088;6.572;2023-05-07T04:48:37;100960.56;;;15.98;69.26
48244;BME280;34053;51.088;6.572;2023-05-07T04:51:27;100963.03;;;16.01;68.61
48244;BME280;34053;51.088;6.572;2023-05-07T04:54:18;100962.13;;;16.02;68.48
48244;BME280;34053;51.088;6.572;2023-05-07T04:57:09;100966.41;;;16.05;68.43
48244;BME280;34053;51.088;6.572;2023-05-07T05:00:00;100972.41;;;16.09;68.63
48244;BME280;34053;51.088;6.572;2023-05-07T05:02:51;100974.06;;;16.11;68.17
48244;BME280;34053;51.088;6.572;2023-05-07T05:05:41;100969.56;;;16.13;67.86
48244;BME280;34053;51.088;6.572;2023-05-07T05:08:32;100974.00;;;16.13;68.17
48244;BME280;34053;51.088;6.572;2023-05-07T05:11:23;100974.13;;;16.10;69.24
48244;BME280;34053;51.088;6.572;2023-05-07T05:14:14;100974.78;;;15.75;73.22
48244;BME280;34053;51.088;6.572;2023-05-07T05:17:05;100971.22;;;15.76;73.72
48244;BME280;34053;51.088;6.572;2023-05-07T05:19:55;100980.25;;;15.91;72.00
48244;BME280;34053;51.088;6.572;2023-05-07T05:22:46;100974.84;;;15.94;70.94
48244;BME280;34053;51.088;6.572;2023-05-07T05:25:37;100978.56;;;16.09;70.33
48244;BME280;34053;51.088;6.572;2023-05-07T05:28:29;100972.28;;;16.12;69.46
48244;BME280;34053;51.088;6.572;2023-05-07T05:31:20;100986.72;;;16.04;71.53
48244;BME280;34053;51.088;6.572;2023-05-07T05:34:11;100981.72;;;16.17;70.03
48244;BME280;34053;51.088;6.572;2023-05-07T05:37:02;100988.72;;;15.99;71.82
48244;BME280;34053;51.088;6.572;2023-05-07T05:39:53;100992.31;;;15.98;73.03
48244;BME280;34053;51.088;6.572;2023-05-07T05:42:45;100999.56;;;15.93;72.54
48244;BME280;34053;51.088;6.572;2023-05-07T05:45:36;100997.03;;;16.11;70.19
48244;BME280;34053;51.088;6.572;2023-05-07T05:48:26;101005.59;;;16.16;69.66
48244;BME280;34053;51.088;6.572;2023-05-07T05:51:17;101000.81;;;16.24;69.23
48244;BME280;34053;51.088;6.572;2023-05-07T05:54:08;100999.19;;;15.82;74.34
48244;BME280;34053;51.088;6.572;2023-05-07T05:56:59;100999.31;;;15.79;74.96
48244;BME280;34053;51.088;6.572;2023-05-07T05:59:49;100998.00;;;15.89;74.05
48244;BME280;34053;51.088;6.572;2023-05-07T06:02:40;101000.97;;;16.02;71.57
48244;BME280;34053;51.088;6.572;2023-05-07T06:05:33;100998.47;;;16.18;70.39
48244;BME280;34053;51.088;6.572;2023-05-07T06:08:23;101001.81;;;16.21;70.19
48244;BME280;34053;51.088;6.572;2023-05-07T06:11:14;100999.63;;;16.31;69.73
48244;BME280;34053;51.088;6.572;2023-05-07T06:14:05;100997.59;;;16.36;69.40
48244;BME280;34053;51.088;6.572;2023-05-07T06:16:56;101001.09;;;16.37;69.83
48244;BME280;34053;51.088;6.572;2023-05-07T06:19:47;101006.19;;;16.42;70.11
48244;BME280;34053;51.088;6.572;2023-05-07T06:22:38;101005.91;;;16.48;69.31
48244;BME280;34053;51.088;6.572;2023-05-07T06:25:29;101006.75;;;16.48;70.79
48244;BME280;34053;51.088;6.572;2023-05-07T06:28:19;101011.72;;;16.56;69.08
48244;BME280;34053;51.088;6.572;2023-05-07T06:31:20;101004.69;;;16.55;70.12
48244;BME280;34053;51.088;6.572;2023-05-07T06:34:13;101008.69;;;16.64;69.46
48244;BME280;34053;51.088;6.572;2023-05-07T06:37:05;101007.53;;;16.70;68.86
48244;BME280;34053;51.088;6.572;2023-05-07T06:39:56;101008.31;;;16.72;68.96
48244;BME280;34053;51.088;6.572;2023-05-07T06:42:47;101003.88;;;16.72;69.27
48244;BME280;34053;51.088;6.572;2023-05-07T06:45:37;101012.47;;;16.77;69.11
48244;BME280;34053;51.088;6.572;2023-05-07T06:48:28;101005.97;;;16.83;69.13
48244;BME280;34053;51.088;6.572;2023-05-07T06:51:19;101007.47;;;16.89;69.06
48244;BME280;34053;51.088;6.572;2023-05-07T06:54:10;101000.31;;;16.91;68.83
48244;BME280;34053;51.088;6.572;2023-05-07T06:57:00;101007.72;;;16.84;70.00
48244;BME280;34053;51.088;6.572;2023-05-07T06:59:51;101017.75;;;16.96;69.05
48244;BME280;34053;51.088;6.572;2023-05-07T07:02:42;101019.94;;;17.06;68.54
48244;BME280;34053;51.088;6.572;2023-05-07T07:05:33;101021.91;;;17.02;69.41
48244;BME280;34053;51.088;6.572;2023-05-07T07:08:24;101022.44;;;17.09;68.86
48244;BME280;34053;51.088;6.572;2023-05-07T07:11:15;101017.59;;;17.17;68.75
48244;BME280;34053;51.088;6.572;2023-05-07T07:14:06;101023.13;;;17.12;70.40
48244;BME280;34053;51.088;6.572;2023-05-07T07:17:00;101022.69;;;17.22;69.61
48244;BME280;34053;51.088;6.572;2023-05-07T07:19:51;101019.19;;;17.21;69.92
48244;BME280;34053;51.088;6.572;2023-05-07T07:22:42;101030.41;;;17.26;69.84
48244;BME280;34053;51.088;6.572;2023-05-07T07:25:34;101019.47;;;17.33;70.49
48244;BME280;34053;51.088;6.572;2023-05-07T07:28:25;101019.41;;;17.52;68.70
48244;BME280;34053;51.088;6.572;2023-05-07T07:31:16;101020.13;;;17.55;68.69
48244;BME280;34053;51.088;6.572;2023-05-07T07:34:07;101022.69;;;17.57;69.30
48244;BME280;34053;51.088;6.572;2023-05-07T07:36:58;101026.59;;;17.67;69.41
48244;BME280;34053;51.088;6.572;2023-05-07T07:39:48;101025.56;;;17.52;70.38
48244;BME280;34053;51.088;6.572;2023-05-07T07:42:39;101022.22;;;17.66;70.15
48244;BME280;34053;51.088;6.572;2023-05-07T07:45:30;101019.13;;;17.74;69.50
48244;BME280;34053;51.088;6.572;2023-05-07T07:48:21;101019.84;;;17.77;70.12
48244;BME280;34053;51.088;6.572;2023-05-07T07:51:11;101028.66;;;17.96;69.36
48244;BME280;34053;51.088;6.572;2023-05-07T07:54:03;101031.31;;;17.96;69.65
48244;BME280;34053;51.088;6.572;2023-05-07T07:56:54;101031.78;;;18.04;69.17
48244;BME280;34053;51.088;6.572;2023-05-07T07:59:44;101030.75;;;18.06;69.21
48244;BME280;34053;51.088;6.572;2023-05-07T08:02:35;101033.94;;;18.13;69.58
48244;BME280;34053;51.088;6.572;2023-05-07T08:05:26;101036.25;;;18.19;69.41
48244;BME280;34053;51.088;6.572;2023-05-07T08:08:17;101030.59;;;18.25;69.38
48244;BME280;34053;51.088;6.572;2023-05-07T08:11:08;101029.16;;;18.36;68.83
48244;BME280;34053;51.088;6.572;2023-05-07T08:13:59;101026.50;;;18.36;68.63
48244;BME280;34053;51.088;6.572;2023-05-07T08:17:13;101029.41;;;18.47;68.41
48244;BME280;34053;51.088;6.572;2023-05-07T08:20:07;101033.53;;;18.53;68.13
48244;BME280;34053;51.088;6.572;2023-05-07T08:22:58;101038.44;;;18.61;66.90
48244;BME280;34053;51.088;6.572;2023-05-07T08:25:49;101031.50;;;18.58;66.87
48244;BME280;34053;51.088;6.572;2023-05-07T08:28:41;101033.22;;;18.59;66.79
48244;BME280;34053;51.088;6.572;2023-05-07T08:31:32;101033.63;;;18.67;66.60
48244;BME280;34053;51.088;6.572;2023-05-07T08:34:23;101039.63;;;18.71;67.47
48244;BME280;34053;51.088;6.572;2023-05-07T08:37:14;101038.50;;;18.75;68.15
48244;BME280;34053;51.088;6.572;2023-05-07T08:40:05;101044.34;;;18.82;67.31
48244;BME280;34053;51.088;6.572;2023-05-07T08:42:56;101043.13;;;18.87;67.64
48244;BME280;34053;51.088;6.572;2023-05-07T08:45:49;101033.69;;;18.98;67.72
48244;BME280;34053;51.088;6.572;2023-05-07T08:48:44;101035.06;;;19.05;67.39
48244;BME280;34053;51.088;6.572;2023-05-07T08:51:36;101036.34;;;19.14;67.13
48244;BME280;34053;51.088;6.572;2023-05-07T08:54:27;101034.19;;;19.21;66.81
48244;BME280;34053;51.088;6.572;2023-05-07T08:57:18;101037.59;;;19.23;67.03
48244;BME280;34053;51.088;6.572;2023-05-07T09:00:12;101038.59;;;19.36;66.49
48244;BME280;34053;51.088;6.572;2023-05-07T09:03:03;101040.31;;;19.37;65.24
48244;BME280;34053;51.088;6.572;2023-05-07T09:05:54;101041.06;;;19.39;65.73
48244;BME280;34053;51.088;6.572;2023-05-07T09:08:52;101031.19;;;19.41;64.94
48244;BME280;34053;51.088;6.572;2023-05-07T09:11:44;101035.97;;;19.50;64.91
48244;BME280;34053;51.088;6.572;2023-05-07T09:14:35;101042.47;;;19.61;64.73
48244;BME280;34053;51.088;6.572;2023-05-07T09:17:26;101040.75;;;19.60;62.09
48244;BME280;34053;51.088;6.572;2023-05-07T09:20:16;101042.25;;;19.64;62.29
48244;BME280;34053;51.088;6.572;2023-05-07T09:23:07;101038.88;;;19.76;62.79
48244;BME280;34053;51.088;6.572;2023-05-07T09:26:00;101027.84;;;19.82;62.94
48244;BME280;34053;51.088;6.572;2023-05-07T09:28:51;101032.06;;;19.87;62.02
48244;BME280;34053;51.088;6.572;2023-05-07T09:31:42;101031.97;;;19.88;61.19
48244;BME280;34053;51.088;6.572;2023-05-07T09:34:34;101033.28;;;19.95;61.16
48244;BME280;34053;51.088;6.572;2023-05-07T09:37:26;101039.56;;;20.09;61.70
48244;BME280;34053;51.088;6.572;2023-05-07T09:40:21;101041.28;;;20.10;62.16
48244;BME280;34053;51.088;6.572;2023-05-07T09:43:13;101039.75;;;20.20;62.48
48244;BME280;34053;51.088;6.572;2023-05-07T09:46:15;101034.50;;;20.33;61.72
48244;BME280;34053;51.088;6.572;2023-05-07T09:49:12;101035.28;;;20.21;59.55
48244;BME280;34053;51.088;6.572;2023-05-07T09:52:06;101033.28;;;20.39;59.97
48244;BME280;34053;51.088;6.572;2023-05-07T09:54:59;101027.25;;;20.50;59.50
48244;BME280;34053;51.088;6.572;2023-05-07T09:57:51;101027.31;;;20.63;58.04
48244;BME280;34053;51.088;6.572;2023-05-07T10:00:43;101029.47;;;20.70;58.13
48244;BME280;34053;51.088;6.572;2023-05-07T10:03:35;101032.75;;;20.75;57.11
48244;BME280;34053;51.088;6.572;2023-05-07T10:06:27;101025.94;;;20.84;58.08
48244;BME280;34053;51.088;6.572;2023-05-07T10:09:19;101032.34;;;20.82;57.33
48244;BME280;34053;51.088;6.572;2023-05-07T10:12:11;101026.81;;;20.85;56.89
48244;BME280;34053;51.088;6.572;2023-05-07T10:15:02;101025.22;;;20.95;56.68
48244;BME280;34053;51.088;6.572;2023-05-07T10:17:53;101022.72;;;21.06;56.78
48244;BME280;34053;51.088;6.572;2023-05-07T10:20:45;101038.91;;;21.03;55.30
48244;BME280;34053;51.088;6.572;2023-05-07T10:23:38;101033.72;;;21.15;55.68
48244;BME280;34053;51.088;6.572;2023-05-07T10:26:31;101033.75;;;21.28;55.14
48244;BME280;34053;51.088;6.572;2023-05-07T10:32:45;101028.63;;;21.25;52.85
48244;BME280;34053;51.088;6.572;2023-05-07T10:35:40;101028.44;;;21.41;54.70
48244;BME280;34053;51.088;6.572;2023-05-07T10:38:31;101027.31;;;21.58;55.29
48244;BME280;34053;51.088;6.572;2023-05-07T10:41:22;101026.63;;;21.54;55.49
48244;BME280;34053;51.088;6.572;2023-05-07T10:44:27;101028.28;;;21.69;53.45
48244;BME280;34053;51.088;6.572;2023-05-07T10:47:18;101023.25;;;21.78;52.66
48244;BME280;34053;51.088;6.572;2023-05-07T11:02:17;101022.84;;;22.10;52.18
48244;BME280;34053;51.088;6.572;2023-05-07T11:05:28;101021.50;;;22.15;50.42
48244;BME280;34053;51.088;6.572;2023-05-07T11:08:19;101019.28;;;22.22;51.90
48244;BME280;34053;51.088;6.572;2023-05-07T11:11:10;101011.47;;;22.19;50.17
48244;BME280;34053;51.088;6.572;2023-05-07T11:14:01;101017.47;;;22.23;50.83
48244;BME280;34053;51.088;6.572;2023-05-07T11:17:02;101013.41;;;22.17;50.92
48244;BME280;34053;51.088;6.572;2023-05-07T11:19:55;101018.50;;;22.20;51.02
48244;BME280;34053;51.088;6.572;2023-05-07T11:22:46;101014.22;;;22.30;50.21
48244;BME280;34053;51.088;6.572;2023-05-07T11:25:37;101015.09;;;22.31;49.87
48244;BME280;34053;51.088;6.572;2023-05-07T11:28:29;101002.91;;;22.40;50.83
48244;BME280;34053;51.088;6.572;2023-05-07T11:31:22;101008.25;;;22.40;50.50
48244;BME280;34053;51.088;6.572;2023-05-07T11:34:15;101013.25;;;22.31;50.02
48244;BME280;34053;51.088;6.572;2023-05-07T11:37:06;101002.75;;;22.54;49.51
48244;BME280;34053;51.088;6.572;2023-05-07T11:40:07;101007.63;;;22.60;47.58
48244;BME280;34053;51.088;6.572;2023-05-07T11:43:10;101006.66;;;22.61;47.12
48244;BME280;34053;51.088;6.572;2023-05-07T11:46:11;101004.75;;;22.63;48.20
48244;BME280;34053;51.088;6.572;2023-05-07T11:49:02;101020.66;;;22.65;48.57
48244;BME280;34053;51.088;6.572;2023-05-07T11:51:53;101020.91;;;22.62;47.10
48244;BME280;34053;51.088;6.572;2023-05-07T11:54:53;101019.06;;;22.62;47.57
48244;BME280;34053;51.088;6.572;2023-05-07T11:57:45;101013.03;;;22.72;49.50
48244;BME280;34053;51.088;6.572;2023-05-07T12:00:36;101016.81;;;22.69;49.15
48244;BME280;34053;51.088;6.572;2023-05-07T12:03:26;101019.91;;;22.76;49.44
48244;BME280;34053;51.088;6.572;2023-05-07T12:06:17;101013.47;;;22.78;49.25
48244;BME280;34053;51.088;6.572;2023-05-07T12:09:08;101022.38;;;22.66;48.40
48244;BME280;34053;51.088;6.572;2023-05-07T12:12:04;101019.50;;;22.69;47.62
48244;BME280;34053;51.088;6.572;2023-05-07T12:14:55;101029.97;;;22.72;48.46
48244;BME280;34053;51.088;6.572;2023-05-07T12:17:46;101032.06;;;22.80;49.26
48244;BME280;34053;51.088;6.572;2023-05-07T12:20:37;101030.59;;;22.76;46.88
48244;BME280;34053;51.088;6.572;2023-05-07T12:23:29;101031.31;;;22.78;46.92
48244;BME280;34053;51.088;6.572;2023-05-07T12:26:20;101036.56;;;22.79;47.30
48244;BME280;34053;51.088;6.572;2023-05-07T12:29:11;101034.28;;;22.86;47.00
48244;BME280;34053;51.088;6.572;2023-05-07T12:32:02;101030.16;;;22.93;48.59
48244;BME280;34053;51.088;6.572;2023-05-07T12:34:53;101035.22;;;22.85;46.93
48244;BME280;34053;51.088;6.572;2023-05-07T12:37:44;101034.41;;;22.85;48.16
48244;BME280;34053;51.088;6.572;2023-05-07T12:40:37;101035.03;;;22.88;47.96
48244;BME280;34053;51.088;6.572;2023-05-07T12:43:29;101035.22;;;22.85;47.83
48244;BME280;34053;51.088;6.572;2023-05-07T12:46:19;101033.72;;;22.94;48.83
48244;BME280;34053;51.088;6.572;2023-05-07T12:49:11;101028.56;;;22.91;48.17
48244;BME280;34053;51.088;6.572;2023-05-07T12:52:03;101028.84;;;22.99;47.75
48244;BME280;34053;51.088;6.572;2023-05-07T12:54:53;101034.34;;;22.98;48.12
48244;BME280;34053;51.088;6.572;2023-05-07T12:57:48;101039.19;;;22.92;44.98
48244;BME280;34053;51.088;6.572;2023-05-07T13:00:39;101034.13;;;23.01;47.59
48244;BME280;34053;51.088;6.572;2023-05-07T13:03:32;101032.69;;;23.08;47.52
48244;BME280;34053;51.088;6.572;2023-05-07T13:06:23;101030.00;;;23.08;47.30
48244;BME280;34053;51.088;6.572;2023-05-07T13:09:14;101040.94;;;23.05;45.06
48244;BME280;34053;51.088;6.572;2023-05-07T13:12:05;101040.09;;;23.04;46.11
48244;BME280;34053;51.088;6.572;2023-05-07T13:14:56;101044.22;;;23.08;45.89
48244;BME280;34053;51.088;6.572;2023-05-07T13:17:47;101044.34;;;23.07;47.25
48244;BME280;34053;51.088;6.572;2023-05-07T13:20:38;101045.59;;;23.14;47.39
48244;BME280;34053;51.088;6.572;2023-05-07T13:23:28;101051.50;;;23.06;45.67
48244;BME280;34053;51.088;6.572;2023-05-07T13:26:19;101051.50;;;23.06;46.08
48244;BME280;34053;51.088;6.572;2023-05-07T13:29:11;101058.47;;;23.09;46.25
48244;BME280;34053;51.088;6.572;2023-05-07T13:32:01;101063.28;;;22.92;47.32
48244;BME280;34053;51.088;6.572;2023-05-07T13:34:52;101065.28;;;22.64;45.90
48244;BME280;34053;51.088;6.572;2023-05-07T13:37:43;101069.69;;;22.53;46.86
48244;BME280;34053;51.088;6.572;2023-05-07T13:40:34;101070.66;;;22.52;48.12
48244;BME280;34053;51.088;6.572;2023-05-07T13:43:25;101076.47;;;22.45;49.38
48244;BME280;34053;51.088;6.572;2023-05-07T13:46:15;101076.22;;;22.36;49.14
48244;BME280;34053;51.088;6.572;2023-05-07T13:49:06;101086.72;;;22.26;49.44
48244;BME280;34053;51.088;6.572;2023-05-07T13:51:57;101092.72;;;22.04;53.12
48244;BME280;34053;51.088;6.572;2023-05-07T13:54:48;101082.91;;;22.04;53.07
48244;BME280;34053;51.088;6.572;2023-05-07T13:57:55;101087.16;;;22.07;53.46
48244;BME280;34053;51.088;6.572;2023-05-07T14:00:47;101095.78;;;21.72;54.82
48244;BME280;34053;51.088;6.572;2023-05-07T14:03:38;101094.41;;;21.79;54.74
48244;BME280;34053;51.088;6.572;2023-05-07T14:06:30;101085.97;;;21.59;54.97
48244;BME280;34053;51.088;6.572;2023-05-07T14:09:20;101088.34;;;21.77;54.24
48244;BME280;34053;51.088;6.572;2023-05-07T14:12:11;101085.25;;;21.83;54.13
48244;BME280;34053;51.088;6.572;2023-05-07T14:15:03;101094.50;;;21.64;54.86
48244;BME280;34053;51.088;6.572;2023-05-07T14:17:53;101096.03;;;21.81;54.38
48244;BME280;34053;51.088;6.572;2023-05-07T14:20:44;101099.13;;;21.48;54.85
48244;BME280;34053;51.088;6.572;2023-05-07T14:23:36;101103.78;;;21.59;54.33
48244;BME280;34053;51.088;6.572;2023-05-07T14:26:27;101110.53;;;21.64;54.63
48244;BME280;34053;51.088;6.572;2023-05-07T14:29:18;101108.41;;;21.42;55.20
48244;BME280;34053;51.088;6.572;2023-05-07T14:32:09;101101.81;;;21.48;55.08
48244;BME280;34053;51.088;6.572;2023-05-07T14:35:00;101099.00;;;21.09;57.04
48244;BME280;34053;51.088;6.572;2023-05-07T14:37:51;101098.47;;;21.04;57.55
48244;BME280;34053;51.088;6.572;2023-05-07T14:40:42;101091.03;;;21.49;55.97
48244;BME280;34053;51.088;6.572;2023-05-07T14:43:32;101088.88;;;21.42;56.78
48244;BME280;34053;51.088;6.572;2023-05-07T14:46:23;101092.31;;;21.44;57.66
48244;BME280;34053;51.088;6.572;2023-05-07T14:49:15;101084.66;;;21.52;57.47
48244;BME280;34053;51.088;6.572;2023-05-07T14:52:09;101093.56;;;21.65;57.52
48244;BME280;34053;51.088;6.572;2023-05-07T14:55:00;101101.53;;;21.25;59.62
48244;BME280;34053;51.088;6.572;2023-05-07T14:57:51;101105.13;;;21.51;58.47
48244;BME280;34053;51.088;6.572;2023-05-07T15:00:42;101104.16;;;21.52;59.08
48244;BME280;34053;51.088;6.572;2023-05-07T15:03:32;101114.47;;;21.59;58.92
48244;BME280;34053;51.088;6.572;2023-05-07T15:06:23;101118.00;;;21.32;61.71
48244;BME280;34053;51.088;6.572;2023-05-07T15:09:15;101116.81;;;21.63;58.64
48244;BME280;34053;51.088;6.572;2023-05-07T15:12:05;101118.47;;;21.51;59.44